LHA5408 EDDB-DTTJ
Flight info
| Callsign | LHA5408 |
|---|---|
| Flight time | N/A |
| Altitude | 33000 |
| Route | LUROS Y211 BEBKU DCT MAREM DCT BUDEX DCT IXONA DCT GOTMO DCT PININ DCT TUNEX UG737 CBN UG727 SFX A411 BISKO |
| Aircraft | A319/M-SDE1E2FGIRWYZ/S |
Departure
| Time | N/A |
|---|---|
| Airport | Berlin Brandenburg Airport (EDDB) |
Arrival
| Time | 2026-04-25 09:08 |
|---|---|
| Airport | Djerba Zarzis International Airport (DTTJ) |
| Time | Latitude | Longitude | Altitude | Speed | Heading |
|---|---|---|---|---|---|
| 2026-04-25 07:21 | 46.20558 | 13.79692 | 33086 ft | 527 kts | 193° |
| 2026-04-25 07:22 | 46.13294 | 13.78337 | 33078 ft | 527 kts | 193° |
| 2026-04-25 07:22 | 46.06068 | 13.76995 | 33071 ft | 527 kts | 193° |
| 2026-04-25 07:23 | 45.98830 | 13.75653 | 33066 ft | 527 kts | 193° |
| 2026-04-25 07:23 | 45.91600 | 13.74316 | 33063 ft | 527 kts | 193° |
| 2026-04-25 07:24 | 45.84353 | 13.72980 | 33061 ft | 527 kts | 193° |
| 2026-04-25 07:24 | 45.77080 | 13.71642 | 33062 ft | 527 kts | 193° |
| 2026-04-25 07:25 | 45.70059 | 13.70354 | 33062 ft | 527 kts | 193° |
| 2026-04-25 07:25 | 45.62823 | 13.69030 | 33062 ft | 527 kts | 193° |
| 2026-04-25 07:26 | 45.55564 | 13.67705 | 33062 ft | 527 kts | 193° |
| 2026-04-25 07:26 | 45.49564 | 13.66612 | 33062 ft | 527 kts | 193° |
| 2026-04-25 07:27 | 45.41077 | 13.65070 | 33062 ft | 527 kts | 193° |
| 2026-04-25 07:27 | 45.33829 | 13.63758 | 33063 ft | 527 kts | 193° |
| 2026-04-25 07:28 | 45.26945 | 13.62514 | 33062 ft | 527 kts | 193° |
| 2026-04-25 07:28 | 45.21045 | 13.61450 | 33062 ft | 527 kts | 193° |
| 2026-04-25 07:29 | 45.12564 | 13.59924 | 33062 ft | 527 kts | 193° |
| 2026-04-25 07:29 | 45.05292 | 13.58615 | 33063 ft | 527 kts | 193° |
| 2026-04-25 07:30 | 44.98064 | 13.57316 | 33063 ft | 527 kts | 193° |
| 2026-04-25 07:30 | 44.90807 | 13.56023 | 33062 ft | 527 kts | 192° |
| 2026-04-25 07:31 | 44.83616 | 13.54424 | 33060 ft | 523 kts | 198° |
| 2026-04-25 07:31 | 44.76624 | 13.51804 | 33062 ft | 519 kts | 203° |
| 2026-04-25 07:32 | 44.69712 | 13.48985 | 33062 ft | 519 kts | 203° |
| 2026-04-25 07:32 | 44.62801 | 13.46191 | 33062 ft | 519 kts | 202° |
| 2026-04-25 07:33 | 44.55918 | 13.43430 | 33062 ft | 519 kts | 202° |
| 2026-04-25 07:33 | 44.48986 | 13.40663 | 33062 ft | 519 kts | 202° |
| 2026-04-25 07:34 | 44.42056 | 13.37904 | 33062 ft | 519 kts | 202° |
| 2026-04-25 07:34 | 44.36287 | 13.35611 | 33063 ft | 520 kts | 202° |
| 2026-04-25 07:35 | 44.29375 | 13.32872 | 33062 ft | 520 kts | 202° |
| 2026-04-25 07:35 | 44.21283 | 13.29675 | 33062 ft | 520 kts | 202° |
| 2026-04-25 07:36 | 44.14340 | 13.26938 | 33062 ft | 520 kts | 202° |
| 2026-04-25 07:36 | 44.08570 | 13.24670 | 33062 ft | 519 kts | 202° |
| 2026-04-25 07:37 | 44.00693 | 13.21579 | 33062 ft | 520 kts | 202° |
| 2026-04-25 07:37 | 43.93779 | 13.18874 | 33063 ft | 519 kts | 202° |
| 2026-04-25 07:38 | 43.88022 | 13.16626 | 33059 ft | 517 kts | 202° |
| 2026-04-25 07:38 | 43.79974 | 13.13491 | 33063 ft | 514 kts | 202° |
| 2026-04-25 07:39 | 43.73125 | 13.10830 | 33063 ft | 512 kts | 202° |
| 2026-04-25 07:39 | 43.66288 | 13.08179 | 33064 ft | 510 kts | 202° |
| 2026-04-25 07:40 | 43.59551 | 13.05573 | 33063 ft | 507 kts | 202° |
| 2026-04-25 07:40 | 43.52781 | 13.02959 | 33064 ft | 505 kts | 202° |
| 2026-04-25 07:41 | 43.46063 | 13.00372 | 33064 ft | 503 kts | 202° |
| 2026-04-25 07:41 | 43.39371 | 12.97801 | 33063 ft | 501 kts | 202° |
| 2026-04-25 07:42 | 43.32666 | 12.95229 | 33063 ft | 499 kts | 202° |
| 2026-04-25 07:42 | 43.27133 | 12.93112 | 33072 ft | 498 kts | 202° |
| 2026-04-25 07:43 | 43.19347 | 12.90235 | 33099 ft | 500 kts | 199° |
| 2026-04-25 07:43 | 43.12568 | 12.88131 | 33113 ft | 501 kts | 199° |
| 2026-04-25 07:44 | 43.06934 | 12.86395 | 33114 ft | 501 kts | 199° |
| 2026-04-25 07:44 | 42.99049 | 12.83961 | 33115 ft | 501 kts | 198° |
| 2026-04-25 07:45 | 42.93415 | 12.82217 | 33115 ft | 502 kts | 198° |
| 2026-04-25 07:45 | 42.85483 | 12.79774 | 33113 ft | 502 kts | 197° |
| 2026-04-25 07:46 | 42.79792 | 12.78031 | 33114 ft | 503 kts | 197° |
| 2026-04-25 07:46 | 42.73027 | 12.75961 | 33115 ft | 503 kts | 197° |
| 2026-04-25 07:47 | 42.66216 | 12.73881 | 33115 ft | 503 kts | 197° |
| 2026-04-25 07:47 | 42.58311 | 12.71468 | 33115 ft | 503 kts | 197° |
| 2026-04-25 07:48 | 42.52629 | 12.69739 | 33115 ft | 503 kts | 197° |
| 2026-04-25 07:48 | 42.44695 | 12.67329 | 33114 ft | 503 kts | 197° |
| 2026-04-25 07:49 | 42.37906 | 12.65272 | 33112 ft | 502 kts | 197° |
| 2026-04-25 07:49 | 42.31120 | 12.63221 | 33111 ft | 502 kts | 197° |
| 2026-04-25 07:50 | 42.25456 | 12.61511 | 33112 ft | 503 kts | 197° |
| 2026-04-25 07:50 | 42.17497 | 12.59117 | 33114 ft | 502 kts | 198° |
| 2026-04-25 07:51 | 42.10740 | 12.57086 | 33115 ft | 502 kts | 197° |
| 2026-04-25 07:51 | 42.03939 | 12.55048 | 33115 ft | 502 kts | 197° |
| 2026-04-25 07:52 | 41.97122 | 12.53010 | 33115 ft | 502 kts | 197° |
| 2026-04-25 07:52 | 41.90325 | 12.50981 | 33115 ft | 502 kts | 197° |
| 2026-04-25 07:53 | 41.83536 | 12.48961 | 33112 ft | 503 kts | 197° |
| 2026-04-25 07:53 | 41.76727 | 12.46939 | 33107 ft | 502 kts | 197° |
| 2026-04-25 07:54 | 41.71045 | 12.45254 | 33099 ft | 503 kts | 197° |
| 2026-04-25 07:54 | 41.63135 | 12.42915 | 33093 ft | 503 kts | 197° |
| 2026-04-25 07:55 | 41.57450 | 12.41236 | 33091 ft | 503 kts | 197° |
| 2026-04-25 07:55 | 41.50619 | 12.39223 | 33091 ft | 503 kts | 197° |
| 2026-04-25 07:56 | 41.43854 | 12.37235 | 33091 ft | 503 kts | 197° |
| 2026-04-25 07:56 | 41.37021 | 12.35230 | 33090 ft | 503 kts | 198° |
| 2026-04-25 07:57 | 41.30220 | 12.33238 | 33091 ft | 503 kts | 197° |
| 2026-04-25 07:57 | 41.22266 | 12.30916 | 33091 ft | 503 kts | 197° |
| 2026-04-25 07:58 | 41.16586 | 12.29261 | 33090 ft | 503 kts | 197° |
| 2026-04-25 07:58 | 41.09772 | 12.27279 | 33090 ft | 504 kts | 197° |
| 2026-04-25 07:59 | 41.02951 | 12.25297 | 33090 ft | 504 kts | 197° |
| 2026-04-25 07:59 | 40.96118 | 12.23316 | 33090 ft | 506 kts | 196° |
| 2026-04-25 08:00 | 40.88118 | 12.21006 | 33087 ft | 506 kts | 196° |
| 2026-04-25 08:00 | 40.82429 | 12.19367 | 33090 ft | 507 kts | 196° |
| 2026-04-25 08:01 | 40.75589 | 12.17402 | 33091 ft | 506 kts | 196° |
| 2026-04-25 08:01 | 40.68700 | 12.15423 | 33090 ft | 506 kts | 196° |
| 2026-04-25 08:02 | 40.61850 | 12.13458 | 33091 ft | 507 kts | 196° |
| 2026-04-25 08:02 | 40.54999 | 12.11501 | 33090 ft | 506 kts | 196° |
| 2026-04-25 08:03 | 40.48157 | 12.09547 | 33090 ft | 506 kts | 196° |
| 2026-04-25 08:03 | 40.40148 | 12.07268 | 33091 ft | 506 kts | 196° |
| 2026-04-25 08:04 | 40.34446 | 12.05647 | 33090 ft | 506 kts | 196° |
| 2026-04-25 08:04 | 40.26422 | 12.03372 | 33090 ft | 506 kts | 196° |
| 2026-04-25 08:05 | 40.20681 | 12.01748 | 33090 ft | 506 kts | 196° |
| 2026-04-25 08:05 | 40.12691 | 11.99491 | 33090 ft | 506 kts | 196° |
| 2026-04-25 08:06 | 40.05849 | 11.97564 | 33091 ft | 506 kts | 196° |
| 2026-04-25 08:06 | 40.00149 | 11.95961 | 33090 ft | 506 kts | 196° |
| 2026-04-25 08:07 | 39.93261 | 11.94028 | 33091 ft | 506 kts | 196° |
| 2026-04-25 08:07 | 39.85239 | 11.91781 | 33089 ft | 506 kts | 196° |
| 2026-04-25 08:08 | 39.79502 | 11.90179 | 33090 ft | 506 kts | 196° |
| 2026-04-25 08:08 | 39.72673 | 11.88274 | 33090 ft | 506 kts | 196° |
| 2026-04-25 08:09 | 39.65821 | 11.86366 | 33090 ft | 506 kts | 196° |
| 2026-04-25 08:09 | 39.57810 | 11.84141 | 33091 ft | 506 kts | 196° |
| 2026-04-25 08:10 | 39.52106 | 11.82560 | 33091 ft | 506 kts | 196° |
| 2026-04-25 08:10 | 39.45242 | 11.80661 | 33091 ft | 506 kts | 196° |
| 2026-04-25 08:11 | 39.38347 | 11.78755 | 33091 ft | 506 kts | 196° |
| 2026-04-25 08:11 | 39.31507 | 11.76870 | 33091 ft | 506 kts | 196° |
| 2026-04-25 08:12 | 39.24635 | 11.74982 | 33090 ft | 506 kts | 196° |
| 2026-04-25 08:12 | 39.17780 | 11.73100 | 33091 ft | 506 kts | 196° |
| 2026-04-25 08:13 | 39.10915 | 11.71219 | 33091 ft | 506 kts | 196° |
| 2026-04-25 08:14 | 38.99455 | 11.68085 | 33102 ft | 507 kts | 196° |
| 2026-04-25 08:14 | 38.93743 | 11.66525 | 33109 ft | 509 kts | 196° |
| 2026-04-25 08:15 | 38.86791 | 11.64632 | 33111 ft | 511 kts | 195° |
| 2026-04-25 08:15 | 38.79842 | 11.62750 | 33114 ft | 511 kts | 195° |
| 2026-04-25 08:16 | 38.72904 | 11.60872 | 33115 ft | 512 kts | 195° |
| 2026-04-25 08:16 | 38.66002 | 11.59007 | 33115 ft | 511 kts | 195° |
| 2026-04-25 08:17 | 38.59076 | 11.57138 | 33115 ft | 511 kts | 195° |
| 2026-04-25 08:17 | 38.52106 | 11.55259 | 33115 ft | 511 kts | 195° |
| 2026-04-25 08:18 | 38.44042 | 11.53091 | 33115 ft | 511 kts | 195° |
| 2026-04-25 08:18 | 38.38260 | 11.51540 | 33115 ft | 512 kts | 195° |
| 2026-04-25 08:19 | 38.31323 | 11.49683 | 33115 ft | 511 kts | 195° |
| 2026-04-25 08:19 | 38.24407 | 11.47833 | 33115 ft | 511 kts | 195° |
| 2026-04-25 08:20 | 38.17463 | 11.45980 | 33115 ft | 511 kts | 195° |
| 2026-04-25 08:20 | 38.10540 | 11.44135 | 33115 ft | 511 kts | 195° |
| 2026-04-25 08:21 | 38.03599 | 11.42288 | 33115 ft | 511 kts | 195° |
| 2026-04-25 08:21 | 37.96652 | 11.40443 | 33115 ft | 511 kts | 195° |
| 2026-04-25 08:22 | 37.89731 | 11.38554 | 33115 ft | 510 kts | 197° |
| 2026-04-25 08:22 | 37.82829 | 11.36477 | 33116 ft | 510 kts | 197° |
| 2026-04-25 08:23 | 37.75952 | 11.34402 | 33123 ft | 510 kts | 197° |
| 2026-04-25 08:23 | 37.69075 | 11.32349 | 33130 ft | 511 kts | 197° |
| 2026-04-25 08:24 | 37.62191 | 11.30304 | 33136 ft | 511 kts | 196° |
| 2026-04-25 08:24 | 37.55274 | 11.28257 | 33140 ft | 511 kts | 196° |
| 2026-04-25 08:25 | 37.48365 | 11.26214 | 33142 ft | 511 kts | 197° |
| 2026-04-25 08:25 | 37.41483 | 11.24179 | 33142 ft | 511 kts | 197° |
| 2026-04-25 08:26 | 37.34612 | 11.22150 | 33140 ft | 511 kts | 197° |
| 2026-04-25 08:26 | 37.27700 | 11.20111 | 33138 ft | 511 kts | 197° |
| 2026-04-25 08:27 | 37.20790 | 11.18078 | 33136 ft | 511 kts | 197° |
| 2026-04-25 08:27 | 37.13879 | 11.16047 | 33134 ft | 511 kts | 197° |
| 2026-04-25 08:28 | 37.06989 | 11.14024 | 33132 ft | 511 kts | 196° |
| 2026-04-25 08:28 | 37.00071 | 11.11993 | 33129 ft | 512 kts | 195° |
| 2026-04-25 08:29 | 36.93190 | 11.09982 | 33127 ft | 512 kts | 195° |
| 2026-04-25 08:29 | 36.86284 | 11.07947 | 33123 ft | 512 kts | 196° |
| 2026-04-25 08:30 | 36.79357 | 11.05814 | 33122 ft | 512 kts | 196° |
| 2026-04-25 08:30 | 36.72477 | 11.03699 | 33120 ft | 512 kts | 196° |
| 2026-04-25 08:31 | 36.65541 | 11.01600 | 33119 ft | 512 kts | 196° |
| 2026-04-25 08:31 | 36.59112 | 10.99678 | 33118 ft | 510 kts | 196° |
| 2026-04-25 08:32 | 36.52247 | 10.97624 | 33118 ft | 509 kts | 196° |
| 2026-04-25 08:32 | 36.45408 | 10.95577 | 33118 ft | 507 kts | 196° |
| 2026-04-25 08:33 | 36.38578 | 10.93535 | 33119 ft | 506 kts | 196° |
| 2026-04-25 08:33 | 36.31728 | 10.91492 | 33123 ft | 505 kts | 196° |
| 2026-04-25 08:34 | 36.24927 | 10.89466 | 33126 ft | 504 kts | 196° |
| 2026-04-25 08:34 | 36.18147 | 10.87450 | 33127 ft | 502 kts | 196° |
| 2026-04-25 08:35 | 36.11339 | 10.85428 | 33126 ft | 501 kts | 196° |
| 2026-04-25 08:35 | 36.04589 | 10.83428 | 33128 ft | 500 kts | 196° |
| 2026-04-25 08:36 | 35.97872 | 10.81440 | 33134 ft | 499 kts | 196° |
| 2026-04-25 08:36 | 35.91169 | 10.79460 | 33139 ft | 497 kts | 196° |
| 2026-04-25 08:37 | 35.84464 | 10.77480 | 33140 ft | 497 kts | 196° |
| 2026-04-25 08:37 | 35.77645 | 10.75566 | 33142 ft | 498 kts | 193° |
| 2026-04-25 08:38 | 35.70792 | 10.74536 | 33143 ft | 500 kts | 185° |
| 2026-04-25 08:38 | 35.63869 | 10.74150 | 33143 ft | 500 kts | 184° |
| 2026-04-25 08:39 | 35.56915 | 10.73780 | 33143 ft | 500 kts | 184° |
| 2026-04-25 08:39 | 35.50018 | 10.73391 | 33143 ft | 500 kts | 184° |
| 2026-04-25 08:40 | 35.43075 | 10.72992 | 33143 ft | 500 kts | 184° |
| 2026-04-25 08:40 | 35.36175 | 10.72602 | 33143 ft | 500 kts | 184° |
| 2026-04-25 08:41 | 35.29237 | 10.72206 | 33143 ft | 500 kts | 184° |
| 2026-04-25 08:41 | 35.22303 | 10.71810 | 33143 ft | 500 kts | 184° |
| 2026-04-25 08:42 | 35.15386 | 10.71413 | 33143 ft | 500 kts | 184° |
| 2026-04-25 08:42 | 35.08473 | 10.71017 | 33143 ft | 500 kts | 184° |
| 2026-04-25 08:43 | 35.01519 | 10.70618 | 33143 ft | 500 kts | 184° |
| 2026-04-25 08:43 | 34.94611 | 10.70219 | 33143 ft | 500 kts | 183° |
| 2026-04-25 08:44 | 34.87682 | 10.69820 | 33141 ft | 499 kts | 183° |
| 2026-04-25 08:44 | 34.80764 | 10.69430 | 33143 ft | 499 kts | 183° |
| 2026-04-25 08:45 | 34.73862 | 10.69041 | 33141 ft | 499 kts | 182° |
| 2026-04-25 08:45 | 34.66932 | 10.69347 | 33142 ft | 498 kts | 174° |
| 2026-04-25 08:46 | 34.60059 | 10.70115 | 33142 ft | 498 kts | 174° |
| 2026-04-25 08:46 | 34.53217 | 10.70860 | 33142 ft | 498 kts | 174° |
| 2026-04-25 08:47 | 34.46296 | 10.71585 | 33141 ft | 498 kts | 175° |
| 2026-04-25 08:47 | 34.39455 | 10.72103 | 33039 ft | 494 kts | 176° |
| 2026-04-25 08:47 | 34.36062 | 10.72325 | 32678 ft | 487 kts | 176° |
| 2026-04-25 08:48 | 34.32679 | 10.72555 | 32236 ft | 481 kts | 176° |
| 2026-04-25 08:48 | 34.29406 | 10.72640 | 31606 ft | 471 kts | 186° |
| 2026-04-25 08:48 | 34.26266 | 10.71787 | 30960 ft | 452 kts | 199° |
| 2026-04-25 08:48 | 34.23362 | 10.70569 | 30314 ft | 438 kts | 202° |
| 2026-04-25 08:49 | 34.20569 | 10.69316 | 29667 ft | 426 kts | 202° |
| 2026-04-25 08:49 | 34.17847 | 10.68105 | 29020 ft | 415 kts | 202° |
| 2026-04-25 08:49 | 34.15183 | 10.66947 | 28372 ft | 406 kts | 202° |
| 2026-04-25 08:49 | 34.11700 | 10.65467 | 27507 ft | 394 kts | 201° |
| 2026-04-25 08:50 | 34.09986 | 10.64746 | 27070 ft | 389 kts | 201° |
| 2026-04-25 08:50 | 34.07466 | 10.63693 | 26421 ft | 381 kts | 201° |
| 2026-04-25 08:50 | 34.05000 | 10.62666 | 25773 ft | 375 kts | 201° |
| 2026-04-25 08:50 | 34.02644 | 10.61505 | 25116 ft | 365 kts | 215° |
| 2026-04-25 08:51 | 34.00759 | 10.59575 | 24456 ft | 348 kts | 238° |
| 2026-04-25 08:51 | 33.99645 | 10.57108 | 23811 ft | 331 kts | 257° |
| 2026-04-25 08:51 | 33.99136 | 10.54473 | 23160 ft | 318 kts | 270° |
| 2026-04-25 08:51 | 33.99070 | 10.51862 | 22513 ft | 310 kts | 276° |
| 2026-04-25 08:52 | 33.99066 | 10.49288 | 21863 ft | 306 kts | 276° |
| 2026-04-25 08:52 | 33.99051 | 10.46778 | 21221 ft | 303 kts | 276° |
| 2026-04-25 08:52 | 33.99035 | 10.44237 | 20564 ft | 299 kts | 276° |
| 2026-04-25 08:52 | 33.99020 | 10.41778 | 19922 ft | 296 kts | 275° |
| 2026-04-25 08:53 | 33.99009 | 10.39308 | 19269 ft | 294 kts | 275° |
| 2026-04-25 08:53 | 33.99000 | 10.36879 | 18621 ft | 291 kts | 276° |
| 2026-04-25 08:53 | 33.98992 | 10.34456 | 17969 ft | 288 kts | 275° |
| 2026-04-25 08:53 | 33.98983 | 10.32058 | 17318 ft | 286 kts | 275° |
| 2026-04-25 08:54 | 33.98977 | 10.29680 | 16668 ft | 284 kts | 275° |
| 2026-04-25 08:54 | 33.98976 | 10.27312 | 16016 ft | 282 kts | 275° |
| 2026-04-25 08:54 | 33.98979 | 10.24995 | 15372 ft | 280 kts | 275° |
| 2026-04-25 08:54 | 33.98983 | 10.22655 | 14719 ft | 278 kts | 275° |
| 2026-04-25 08:55 | 33.98989 | 10.20330 | 14064 ft | 276 kts | 275° |
| 2026-04-25 08:55 | 33.98967 | 10.18057 | 13418 ft | 277 kts | 269° |
| 2026-04-25 08:55 | 33.98367 | 10.15848 | 12756 ft | 286 kts | 242° |
| 2026-04-25 08:55 | 33.96961 | 10.14146 | 12106 ft | 294 kts | 214° |
| 2026-04-25 08:56 | 33.95029 | 10.13344 | 11448 ft | 298 kts | 186° |
| 2026-04-25 08:56 | 33.92995 | 10.13632 | 10791 ft | 297 kts | 158° |
| 2026-04-25 08:56 | 33.91299 | 10.14935 | 10138 ft | 289 kts | 129° |
| 2026-04-25 08:56 | 33.90300 | 10.16927 | 9489 ft | 276 kts | 102° |
| 2026-04-25 08:57 | 33.89893 | 10.19137 | 8847 ft | 270 kts | 94° |
| 2026-04-25 08:57 | 33.89654 | 10.21343 | 8200 ft | 266 kts | 91° |
| 2026-04-25 08:57 | 33.89450 | 10.23524 | 7553 ft | 262 kts | 91° |
| 2026-04-25 08:57 | 33.89282 | 10.25653 | 6904 ft | 249 kts | 91° |
| 2026-04-25 08:58 | 33.89136 | 10.27656 | 6258 ft | 237 kts | 91° |
| 2026-04-25 08:58 | 33.88994 | 10.29607 | 5602 ft | 229 kts | 91° |
| 2026-04-25 08:58 | 33.88856 | 10.31468 | 4956 ft | 223 kts | 92° |
| 2026-04-25 08:58 | 33.88719 | 10.33284 | 4308 ft | 217 kts | 92° |
| 2026-04-25 08:59 | 33.88582 | 10.35077 | 3653 ft | 213 kts | 93° |
| 2026-04-25 08:59 | 33.88448 | 10.36795 | 3164 ft | 202 kts | 94° |
| 2026-04-25 08:59 | 33.88320 | 10.38418 | 2989 ft | 187 kts | 94° |
| 2026-04-25 08:59 | 33.88199 | 10.39885 | 3031 ft | 164 kts | 94° |
| 2026-04-25 09:00 | 33.88094 | 10.41175 | 2984 ft | 143 kts | 94° |
| 2026-04-25 09:00 | 33.87999 | 10.42348 | 3016 ft | 141 kts | 93° |
| 2026-04-25 09:00 | 33.87904 | 10.43510 | 2997 ft | 139 kts | 93° |
| 2026-04-25 09:00 | 33.87817 | 10.44667 | 2993 ft | 139 kts | 94° |
| 2026-04-25 09:01 | 33.87720 | 10.45838 | 2988 ft | 139 kts | 93° |
| 2026-04-25 09:01 | 33.87629 | 10.46992 | 2989 ft | 139 kts | 93° |
| 2026-04-25 09:01 | 33.87537 | 10.48148 | 2989 ft | 139 kts | 93° |
| 2026-04-25 09:01 | 33.87443 | 10.49301 | 2987 ft | 139 kts | 92° |
| 2026-04-25 09:02 | 33.87355 | 10.50469 | 2990 ft | 139 kts | 94° |
| 2026-04-25 09:02 | 33.87263 | 10.51623 | 2989 ft | 139 kts | 94° |
| 2026-04-25 09:02 | 33.87167 | 10.52793 | 2988 ft | 139 kts | 94° |
| 2026-04-25 09:02 | 33.87084 | 10.53950 | 2988 ft | 139 kts | 92° |
| 2026-04-25 09:03 | 33.87044 | 10.55109 | 2988 ft | 139 kts | 88° |
| 2026-04-25 09:03 | 33.87048 | 10.56271 | 2989 ft | 139 kts | 88° |
| 2026-04-25 09:03 | 33.87067 | 10.57430 | 2978 ft | 139 kts | 87° |
| 2026-04-25 09:03 | 33.87089 | 10.58594 | 2820 ft | 139 kts | 86° |
| 2026-04-25 09:04 | 33.87115 | 10.59747 | 2635 ft | 138 kts | 89° |
| 2026-04-25 09:04 | 33.87139 | 10.60915 | 2447 ft | 138 kts | 86° |
| 2026-04-25 09:04 | 33.87166 | 10.62063 | 2265 ft | 137 kts | 87° |
| 2026-04-25 09:04 | 33.87195 | 10.63209 | 2084 ft | 137 kts | 89° |
| 2026-04-25 09:05 | 33.87220 | 10.64351 | 1905 ft | 136 kts | 86° |
| 2026-04-25 09:05 | 33.87248 | 10.65491 | 1725 ft | 136 kts | 88° |
| 2026-04-25 09:05 | 33.87277 | 10.66623 | 1543 ft | 136 kts | 91° |
| 2026-04-25 09:05 | 33.87302 | 10.67770 | 1365 ft | 135 kts | 88° |
| 2026-04-25 09:06 | 33.87328 | 10.68899 | 1184 ft | 135 kts | 87° |
| 2026-04-25 09:06 | 33.87357 | 10.70026 | 1004 ft | 134 kts | 90° |
| 2026-04-25 09:06 | 33.87386 | 10.71145 | 821 ft | 134 kts | 91° |
| 2026-04-25 09:06 | 33.87412 | 10.72264 | 651 ft | 133 kts | 89° |
| 2026-04-25 09:07 | 33.87440 | 10.73382 | 466 ft | 133 kts | 91° |
| 2026-04-25 09:07 | 33.87466 | 10.74489 | 297 ft | 132 kts | 89° |
| 2026-04-25 09:07 | 33.87493 | 10.75578 | 117 ft | 128 kts | 89° |
| 2026-04-25 09:07 | 33.87519 | 10.76581 | 12 ft | 107 kts | 90° |
| 2026-04-25 09:08 | 33.87534 | 10.77215 | 16 ft | 54 kts | 90° |
| 2026-04-25 09:08 | 33.87546 | 10.77500 | 20 ft | 26 kts | 88° |
| 2026-04-25 09:08 | 33.87541 | 10.77671 | 21 ft | 17 kts | 114° |
| 2026-04-25 09:08 | 33.87468 | 10.77728 | 22 ft | 10 kts | 161° |
| 2026-04-25 09:09 | 33.87402 | 10.77751 | 24 ft | 8 kts | 176° |
| 2026-04-25 09:09 | 33.87352 | 10.77753 | 24 ft | 5 kts | 178° |
| 2026-04-25 09:09 | 33.87344 | 10.77754 | 25 ft | 0 kts | 178° |